sensor_id;sensor_type;location;lat;lon;timestamp;temperature;humidity
30851;DHT22;17567;48.382;9.102;2023-02-01T00:02:46;2.80;99.90
30851;DHT22;17567;48.382;9.102;2023-02-01T00:07:47;2.70;99.90
30851;DHT22;17567;48.382;9.102;2023-02-01T00:12:49;2.70;99.90
30851;DHT22;17567;48.382;9.102;2023-02-01T00:17:54;2.70;99.90
30851;DHT22;17567;48.382;9.102;2023-02-01T00:22:54;2.70;99.90
30851;DHT22;17567;48.382;9.102;2023-02-01T00:27:55;2.90;99.90
30851;DHT22;17567;48.382;9.102;2023-02-01T00:32:57;2.90;99.90
30851;DHT22;17567;48.382;9.102;2023-02-01T00:37:58;2.90;99.90
30851;DHT22;17567;48.382;9.102;2023-02-01T00:42:59;2.80;99.90
30851;DHT22;17567;48.382;9.102;2023-02-01T00:48:00;2.80;99.90
30851;DHT22;17567;48.382;9.102;2023-02-01T00:53:00;2.90;99.90
30851;DHT22;17567;48.382;9.102;2023-02-01T00:58:01;2.90;99.90
30851;DHT22;17567;48.382;9.102;2023-02-01T01:03:02;2.80;99.90
30851;DHT22;17567;48.382;9.102;2023-02-01T01:08:02;2.80;99.90
30851;DHT22;17567;48.382;9.102;2023-02-01T01:13:03;2.80;99.90
30851;DHT22;17567;48.382;9.102;2023-02-01T01:18:04;2.70;99.90
30851;DHT22;17567;48.382;9.102;2023-02-01T01:23:06;2.80;99.90
30851;DHT22;17567;48.382;9.102;2023-02-01T01:28:06;2.90;99.90
30851;DHT22;17567;48.382;9.102;2023-02-01T01:33:07;2.90;99.90
30851;DHT22;17567;48.382;9.102;2023-02-01T01:38:10;2.90;99.90
30851;DHT22;17567;48.382;9.102;2023-02-01T01:43:15;3.00;99.90
30851;DHT22;17567;48.382;9.102;2023-02-01T01:53:35;3.00;99.90
30851;DHT22;17567;48.382;9.102;2023-02-01T01:58:38;2.90;99.90
30851;DHT22;17567;48.382;9.102;2023-02-01T02:03:45;3.00;99.90
30851;DHT22;17567;48.382;9.102;2023-02-01T02:08:47;3.00;99.90
30851;DHT22;17567;48.382;9.102;2023-02-01T02:13:52;3.00;99.90
30851;DHT22;17567;48.382;9.102;2023-02-01T02:40:45;3.10;99.90
30851;DHT22;17567;48.382;9.102;2023-02-01T02:51:49;3.10;99.90
30851;DHT22;17567;48.382;9.102;2023-02-01T02:57:16;3.10;99.90
30851;DHT22;17567;48.382;9.102;2023-02-01T03:02:37;3.00;99.90
30851;DHT22;17567;48.382;9.102;2023-02-01T03:08:09;3.10;99.90
30851;DHT22;17567;48.382;9.102;2023-02-01T03:18:28;3.10;99.90
30851;DHT22;17567;48.382;9.102;2023-02-01T03:23:32;3.20;99.90
30851;DHT22;17567;48.382;9.102;2023-02-01T03:28:35;3.10;99.90
30851;DHT22;17567;48.382;9.102;2023-02-01T03:33:36;3.10;99.90
30851;DHT22;17567;48.382;9.102;2023-02-01T03:39:01;2.90;99.90
30851;DHT22;17567;48.382;9.102;2023-02-01T03:44:13;3.00;99.90
30851;DHT22;17567;48.382;9.102;2023-02-01T03:49:35;3.00;99.90
30851;DHT22;17567;48.382;9.102;2023-02-01T03:54:37;3.00;99.90
30851;DHT22;17567;48.382;9.102;2023-02-01T03:59:42;3.10;99.90
30851;DHT22;17567;48.382;9.102;2023-02-01T04:04:44;3.00;99.90
30851;DHT22;17567;48.382;9.102;2023-02-01T04:09:45;2.90;99.90
30851;DHT22;17567;48.382;9.102;2023-02-01T04:14:46;3.10;99.90
30851;DHT22;17567;48.382;9.102;2023-02-01T04:19:47;3.00;99.90
30851;DHT22;17567;48.382;9.102;2023-02-01T04:24:47;3.00;99.90
30851;DHT22;17567;48.382;9.102;2023-02-01T04:29:48;3.00;99.90
30851;DHT22;17567;48.382;9.102;2023-02-01T04:34:49;2.90;99.90
30851;DHT22;17567;48.382;9.102;2023-02-01T04:39:50;3.00;99.90
30851;DHT22;17567;48.382;9.102;2023-02-01T04:44:51;2.90;99.90
30851;DHT22;17567;48.382;9.102;2023-02-01T04:49:51;3.00;99.90
30851;DHT22;17567;48.382;9.102;2023-02-01T04:54:52;3.10;99.90
30851;DHT22;17567;48.382;9.102;2023-02-01T04:59:54;3.00;99.90
30851;DHT22;17567;48.382;9.102;2023-02-01T05:04:55;2.90;99.90
30851;DHT22;17567;48.382;9.102;2023-02-01T05:09:56;2.90;99.90
30851;DHT22;17567;48.382;9.102;2023-02-01T05:14:56;2.90;99.90
30851;DHT22;17567;48.382;9.102;2023-02-01T05:19:57;2.80;99.90
30851;DHT22;17567;48.382;9.102;2023-02-01T05:24:57;2.90;99.90
30851;DHT22;17567;48.382;9.102;2023-02-01T05:29:58;3.00;99.90
30851;DHT22;17567;48.382;9.102;2023-02-01T05:34:58;3.00;99.90
30851;DHT22;17567;48.382;9.102;2023-02-01T05:39:59;3.00;99.90
30851;DHT22;17567;48.382;9.102;2023-02-01T05:45:00;3.00;99.90
30851;DHT22;17567;48.382;9.102;2023-02-01T05:50:00;3.00;99.90
30851;DHT22;17567;48.382;9.102;2023-02-01T05:55:01;3.10;99.90
30851;DHT22;17567;48.382;9.102;2023-02-01T06:00:02;3.10;99.90
30851;DHT22;17567;48.382;9.102;2023-02-01T06:05:03;3.10;99.90
30851;DHT22;17567;48.382;9.102;2023-02-01T06:10:04;3.10;99.90
30851;DHT22;17567;48.382;9.102;2023-02-01T06:15:05;3.10;99.90
30851;DHT22;17567;48.382;9.102;2023-02-01T06:20:06;3.30;99.90
30851;DHT22;17567;48.382;9.102;2023-02-01T06:25:09;3.20;99.90
30851;DHT22;17567;48.382;9.102;2023-02-01T06:30:11;3.30;99.90
30851;DHT22;17567;48.382;9.102;2023-02-01T06:35:13;3.30;99.90
30851;DHT22;17567;48.382;9.102;2023-02-01T06:40:16;3.30;99.90
30851;DHT22;17567;48.382;9.102;2023-02-01T06:45:17;3.30;99.90
30851;DHT22;17567;48.382;9.102;2023-02-01T06:50:17;3.30;99.90
30851;DHT22;17567;48.382;9.102;2023-02-01T06:55:18;3.30;99.90
30851;DHT22;17567;48.382;9.102;2023-02-01T07:00:18;3.30;99.90
30851;DHT22;17567;48.382;9.102;2023-02-01T07:05:20;3.20;99.90
30851;DHT22;17567;48.382;9.102;2023-02-01T07:10:20;3.20;99.90
30851;DHT22;17567;48.382;9.102;2023-02-01T07:21:14;3.10;99.90
30851;DHT22;17567;48.382;9.102;2023-02-01T07:26:15;3.00;99.90
30851;DHT22;17567;48.382;9.102;2023-02-01T07:31:18;3.20;99.90
30851;DHT22;17567;48.382;9.102;2023-02-01T07:36:21;3.20;99.90
30851;DHT22;17567;48.382;9.102;2023-02-01T07:41:21;3.10;99.90
30851;DHT22;17567;48.382;9.102;2023-02-01T07:46:25;2.90;99.90
30851;DHT22;17567;48.382;9.102;2023-02-01T07:51:26;3.00;99.90
30851;DHT22;17567;48.382;9.102;2023-02-01T07:56:26;3.00;99.90
30851;DHT22;17567;48.382;9.102;2023-02-01T08:01:28;3.10;99.90
30851;DHT22;17567;48.382;9.102;2023-02-01T08:06:31;3.10;99.90
30851;DHT22;17567;48.382;9.102;2023-02-01T08:11:32;3.10;99.90
30851;DHT22;17567;48.382;9.102;2023-02-01T08:16:34;3.30;99.90
30851;DHT22;17567;48.382;9.102;2023-02-01T08:21:36;3.10;99.90
30851;DHT22;17567;48.382;9.102;2023-02-01T08:26:37;3.10;99.90
30851;DHT22;17567;48.382;9.102;2023-02-01T08:31:37;3.10;99.90
30851;DHT22;17567;48.382;9.102;2023-02-01T08:36:40;3.30;99.90
30851;DHT22;17567;48.382;9.102;2023-02-01T08:41:41;3.30;99.90
30851;DHT22;17567;48.382;9.102;2023-02-01T08:47:03;3.40;99.90
30851;DHT22;17567;48.382;9.102;2023-02-01T08:52:03;3.40;99.90
30851;DHT22;17567;48.382;9.102;2023-02-01T08:57:04;3.20;99.90
30851;DHT22;17567;48.382;9.102;2023-02-01T09:02:05;3.20;99.90
30851;DHT22;17567;48.382;9.102;2023-02-01T09:07:06;3.30;99.90
30851;DHT22;17567;48.382;9.102;2023-02-01T09:12:07;3.30;99.90
30851;DHT22;17567;48.382;9.102;2023-02-01T09:17:08;3.30;99.90
30851;DHT22;17567;48.382;9.102;2023-02-01T09:22:08;3.20;99.90
30851;DHT22;17567;48.382;9.102;2023-02-01T09:27:09;3.20;99.90
30851;DHT22;17567;48.382;9.102;2023-02-01T09:32:10;3.30;99.90
30851;DHT22;17567;48.382;9.102;2023-02-01T09:37:14;3.40;99.90
30851;DHT22;17567;48.382;9.102;2023-02-01T09:47:27;3.50;99.90
30851;DHT22;17567;48.382;9.102;2023-02-01T09:52:36;3.70;99.90
30851;DHT22;17567;48.382;9.102;2023-02-01T09:57:53;3.70;99.90
30851;DHT22;17567;48.382;9.102;2023-02-01T10:02:56;3.60;99.90
30851;DHT22;17567;48.382;9.102;2023-02-01T10:19:01;4.30;99.90
30851;DHT22;17567;48.382;9.102;2023-02-01T10:29:19;4.60;99.90
30851;DHT22;17567;48.382;9.102;2023-02-01T10:34:30;4.80;99.90
30851;DHT22;17567;48.382;9.102;2023-02-01T10:39:32;4.90;99.90
30851;DHT22;17567;48.382;9.102;2023-02-01T10:44:36;4.70;99.90
30851;DHT22;17567;48.382;9.102;2023-02-01T10:49:49;4.70;99.90
30851;DHT22;17567;48.382;9.102;2023-02-01T10:54:53;4.70;99.90
30851;DHT22;17567;48.382;9.102;2023-02-01T10:59:53;4.50;99.90
30851;DHT22;17567;48.382;9.102;2023-02-01T11:05:09;4.60;99.90
30851;DHT22;17567;48.382;9.102;2023-02-01T11:10:38;4.80;99.90
30851;DHT22;17567;48.382;9.102;2023-02-01T11:15:46;4.80;99.90
30851;DHT22;17567;48.382;9.102;2023-02-01T11:25:58;5.20;99.90
30851;DHT22;17567;48.382;9.102;2023-02-01T11:31:02;5.00;99.90
30851;DHT22;17567;48.382;9.102;2023-02-01T11:36:15;5.20;99.90
30851;DHT22;17567;48.382;9.102;2023-02-01T11:41:27;5.30;99.90
30851;DHT22;17567;48.382;9.102;2023-02-01T11:46:33;4.70;99.90
30851;DHT22;17567;48.382;9.102;2023-02-01T12:07:19;4.40;99.90
30851;DHT22;17567;48.382;9.102;2023-02-01T12:28:19;4.00;99.90
30851;DHT22;17567;48.382;9.102;2023-02-01T12:33:47;4.10;99.90
30851;DHT22;17567;48.382;9.102;2023-02-01T12:44:08;4.20;99.90
30851;DHT22;17567;48.382;9.102;2023-02-01T12:49:22;4.20;99.90
30851;DHT22;17567;48.382;9.102;2023-02-01T12:54:46;4.10;99.90
30851;DHT22;17567;48.382;9.102;2023-02-01T13:05:17;4.00;99.90
30851;DHT22;17567;48.382;9.102;2023-02-01T13:21:15;3.90;99.90
30851;DHT22;17567;48.382;9.102;2023-02-01T13:26:17;4.00;99.90
30851;DHT22;17567;48.382;9.102;2023-02-01T13:52:40;3.90;99.90
30851;DHT22;17567;48.382;9.102;2023-02-01T13:57:43;3.90;99.90
30851;DHT22;17567;48.382;9.102;2023-02-01T14:03:07;3.80;99.90
30851;DHT22;17567;48.382;9.102;2023-02-01T14:13:53;3.60;99.90
30851;DHT22;17567;48.382;9.102;2023-02-01T14:18:59;3.80;99.90
30851;DHT22;17567;48.382;9.102;2023-02-01T14:29:35;3.80;99.90
30851;DHT22;17567;48.382;9.102;2023-02-01T14:34:50;3.90;99.90
30851;DHT22;17567;48.382;9.102;2023-02-01T14:40:15;3.80;99.90
30851;DHT22;17567;48.382;9.102;2023-02-01T15:00:56;4.00;99.90
30851;DHT22;17567;48.382;9.102;2023-02-01T15:05:58;4.00;99.90
30851;DHT22;17567;48.382;9.102;2023-02-01T15:11:10;3.90;99.90
30851;DHT22;17567;48.382;9.102;2023-02-01T15:16:15;3.90;99.90
30851;DHT22;17567;48.382;9.102;2023-02-01T15:21:20;3.80;99.90
30851;DHT22;17567;48.382;9.102;2023-02-01T15:26:28;3.90;99.90
30851;DHT22;17567;48.382;9.102;2023-02-01T15:31:38;3.90;99.90
30851;DHT22;17567;48.382;9.102;2023-02-01T15:36:40;3.80;99.90
30851;DHT22;17567;48.382;9.102;2023-02-01T15:41:54;3.80;99.90
30851;DHT22;17567;48.382;9.102;2023-02-01T15:46:56;3.90;99.90
30851;DHT22;17567;48.382;9.102;2023-02-01T15:52:01;3.80;99.90
30851;DHT22;17567;48.382;9.102;2023-02-01T15:57:03;3.80;99.90
30851;DHT22;17567;48.382;9.102;2023-02-01T16:02:28;3.90;99.90
30851;DHT22;17567;48.382;9.102;2023-02-01T16:07:33;3.70;99.90
30851;DHT22;17567;48.382;9.102;2023-02-01T16:12:45;3.70;99.90
30851;DHT22;17567;48.382;9.102;2023-02-01T16:17:46;3.90;99.90
30851;DHT22;17567;48.382;9.102;2023-02-01T16:22:47;3.80;99.90
30851;DHT22;17567;48.382;9.102;2023-02-01T16:27:48;3.80;99.90
30851;DHT22;17567;48.382;9.102;2023-02-01T16:32:51;3.70;99.90
30851;DHT22;17567;48.382;9.102;2023-02-01T16:37:52;3.70;99.90
30851;DHT22;17567;48.382;9.102;2023-02-01T16:42:54;3.70;99.90
30851;DHT22;17567;48.382;9.102;2023-02-01T16:47:56;3.60;99.90
30851;DHT22;17567;48.382;9.102;2023-02-01T16:52:57;3.50;99.90
30851;DHT22;17567;48.382;9.102;2023-02-01T16:57:58;3.70;99.90
30851;DHT22;17567;48.382;9.102;2023-02-01T17:02:59;3.70;99.90
30851;DHT22;17567;48.382;9.102;2023-02-01T17:08:03;3.60;99.90
30851;DHT22;17567;48.382;9.102;2023-02-01T17:13:04;3.60;99.90
30851;DHT22;17567;48.382;9.102;2023-02-01T17:18:07;3.50;99.90
30851;DHT22;17567;48.382;9.102;2023-02-01T17:23:09;3.40;99.90
30851;DHT22;17567;48.382;9.102;2023-02-01T17:28:10;3.40;99.90
30851;DHT22;17567;48.382;9.102;2023-02-01T17:33:32;3.50;99.90
30851;DHT22;17567;48.382;9.102;2023-02-01T17:38:33;3.40;99.90
30851;DHT22;17567;48.382;9.102;2023-02-01T17:43:34;3.50;99.90
30851;DHT22;17567;48.382;9.102;2023-02-01T17:48:35;3.50;99.90
30851;DHT22;17567;48.382;9.102;2023-02-01T17:53:36;3.50;99.90
30851;DHT22;17567;48.382;9.102;2023-02-01T17:58:36;3.50;99.90
30851;DHT22;17567;48.382;9.102;2023-02-01T18:03:37;3.50;99.90
30851;DHT22;17567;48.382;9.102;2023-02-01T18:08:38;3.50;99.90
30851;DHT22;17567;48.382;9.102;2023-02-01T18:13:39;3.60;99.90
30851;DHT22;17567;48.382;9.102;2023-02-01T18:18:40;3.40;99.90
30851;DHT22;17567;48.382;9.102;2023-02-01T18:23:40;3.50;99.90
30851;DHT22;17567;48.382;9.102;2023-02-01T18:28:41;3.40;99.90
30851;DHT22;17567;48.382;9.102;2023-02-01T18:33:42;3.40;99.90
30851;DHT22;17567;48.382;9.102;2023-02-01T18:38:42;3.50;99.90
30851;DHT22;17567;48.382;9.102;2023-02-01T18:43:47;3.50;99.90
30851;DHT22;17567;48.382;9.102;2023-02-01T18:48:47;3.60;99.90
30851;DHT22;17567;48.382;9.102;2023-02-01T18:53:48;3.60;99.90
30851;DHT22;17567;48.382;9.102;2023-02-01T18:58:49;3.40;99.90
30851;DHT22;17567;48.382;9.102;2023-02-01T19:03:50;3.50;99.90
30851;DHT22;17567;48.382;9.102;2023-02-01T19:08:51;3.50;99.90
30851;DHT22;17567;48.382;9.102;2023-02-01T19:13:53;3.40;99.90
30851;DHT22;17567;48.382;9.102;2023-02-01T19:18:54;3.30;99.90
30851;DHT22;17567;48.382;9.102;2023-02-01T19:23:55;3.40;99.90
30851;DHT22;17567;48.382;9.102;2023-02-01T19:28:58;3.40;99.90
30851;DHT22;17567;48.382;9.102;2023-02-01T19:33:58;3.30;99.90
30851;DHT22;17567;48.382;9.102;2023-02-01T19:38:59;3.40;99.90
30851;DHT22;17567;48.382;9.102;2023-02-01T19:43:59;3.40;99.90
30851;DHT22;17567;48.382;9.102;2023-02-01T19:49:00;3.20;99.90
30851;DHT22;17567;48.382;9.102;2023-02-01T19:54:01;3.30;99.90
30851;DHT22;17567;48.382;9.102;2023-02-01T19:59:02;3.30;99.90
30851;DHT22;17567;48.382;9.102;2023-02-01T20:04:04;3.30;99.90
30851;DHT22;17567;48.382;9.102;2023-02-01T20:09:06;3.30;99.90
30851;DHT22;17567;48.382;9.102;2023-02-01T20:14:07;3.20;99.90
30851;DHT22;17567;48.382;9.102;2023-02-01T20:19:10;3.20;99.90
30851;DHT22;17567;48.382;9.102;2023-02-01T20:24:16;3.30;99.90
30851;DHT22;17567;48.382;9.102;2023-02-01T20:29:18;3.20;99.90
30851;DHT22;17567;48.382;9.102;2023-02-01T20:34:18;3.20;99.90
30851;DHT22;17567;48.382;9.102;2023-02-01T20:39:19;3.30;99.90
30851;DHT22;17567;48.382;9.102;2023-02-01T20:44:20;3.30;99.90
30851;DHT22;17567;48.382;9.102;2023-02-01T20:49:21;3.20;99.90
30851;DHT22;17567;48.382;9.102;2023-02-01T20:54:21;3.10;99.90
30851;DHT22;17567;48.382;9.102;2023-02-01T20:59:23;3.20;99.90
30851;DHT22;17567;48.382;9.102;2023-02-01T21:04:27;3.20;99.90
30851;DHT22;17567;48.382;9.102;2023-02-01T21:09:28;3.20;99.90
30851;DHT22;17567;48.382;9.102;2023-02-01T21:14:29;3.30;99.90
30851;DHT22;17567;48.382;9.102;2023-02-01T21:19:30;3.30;99.90
30851;DHT22;17567;48.382;9.102;2023-02-01T21:24:42;3.30;99.90
30851;DHT22;17567;48.382;9.102;2023-02-01T21:29:42;3.40;99.90
30851;DHT22;17567;48.382;9.102;2023-02-01T21:34:43;3.30;99.90
30851;DHT22;17567;48.382;9.102;2023-02-01T21:39:43;3.30;99.90
30851;DHT22;17567;48.382;9.102;2023-02-01T21:44:44;3.40;99.90
30851;DHT22;17567;48.382;9.102;2023-02-01T21:49:48;3.30;99.90
30851;DHT22;17567;48.382;9.102;2023-02-01T21:54:51;3.50;99.90
30851;DHT22;17567;48.382;9.102;2023-02-01T21:59:58;3.50;99.90
30851;DHT22;17567;48.382;9.102;2023-02-01T22:04:59;3.50;99.90
30851;DHT22;17567;48.382;9.102;2023-02-01T22:10:00;3.60;99.90
30851;DHT22;17567;48.382;9.102;2023-02-01T22:15:01;3.50;99.90
30851;DHT22;17567;48.382;9.102;2023-02-01T22:20:04;3.50;99.90
30851;DHT22;17567;48.382;9.102;2023-02-01T22:25:05;3.50;99.90
30851;DHT22;17567;48.382;9.102;2023-02-01T22:30:06;3.60;99.90
30851;DHT22;17567;48.382;9.102;2023-02-01T22:35:07;3.50;99.90
30851;DHT22;17567;48.382;9.102;2023-02-01T22:40:09;3.50;99.90
30851;DHT22;17567;48.382;9.102;2023-02-01T22:45:10;3.50;99.90
30851;DHT22;17567;48.382;9.102;2023-02-01T22:50:10;3.40;99.90
30851;DHT22;17567;48.382;9.102;2023-02-01T22:55:11;3.50;99.90
30851;DHT22;17567;48.382;9.102;2023-02-01T23:00:12;3.50;99.90
30851;DHT22;17567;48.382;9.102;2023-02-01T23:05:12;3.50;99.90
30851;DHT22;17567;48.382;9.102;2023-02-01T23:10:15;3.50;99.90
30851;DHT22;17567;48.382;9.102;2023-02-01T23:15:18;3.50;99.90
30851;DHT22;17567;48.382;9.102;2023-02-01T23:20:19;3.60;99.90
30851;DHT22;17567;48.382;9.102;2023-02-01T23:25:20;3.50;99.90
30851;DHT22;17567;48.382;9.102;2023-02-01T23:30:21;3.50;99.90
30851;DHT22;17567;48.382;9.102;2023-02-01T23:35:21;3.40;99.90
30851;DHT22;17567;48.382;9.102;2023-02-01T23:40:22;3.50;99.90
30851;DHT22;17567;48.382;9.102;2023-02-01T23:45:23;3.40;99.90
30851;DHT22;17567;48.382;9.102;2023-02-01T23:50:26;3.30;99.90
30851;DHT22;17567;48.382;9.102;2023-02-01T23:55:27;3.40;99.90
